createdAt,value
2022-10-22T00:00:51.462Z,12.32
2022-10-22T00:01:54.252Z,13.35
2022-10-22T00:02:56.946Z,12.95
2022-10-22T00:03:59.239Z,13.48
2022-10-22T00:05:01.395Z,13.23
2022-10-22T00:06:03.677Z,12.93
2022-10-22T00:07:05.811Z,12.70
2022-10-22T00:08:08.103Z,13.52
2022-10-22T00:09:11.086Z,13.00
2022-10-22T00:10:13.533Z,12.57
2022-10-22T00:11:18.720Z,13.07
2022-10-22T00:12:21.222Z,14.60
2022-10-22T00:13:23.662Z,13.60
2022-10-22T00:14:25.900Z,14.07
2022-10-22T00:15:28.271Z,12.90
2022-10-22T00:16:30.457Z,13.80
2022-10-22T00:17:32.882Z,13.73
2022-10-22T00:18:35.558Z,13.73
2022-10-22T00:19:38.003Z,12.43
2022-10-22T00:20:40.466Z,13.05
2022-10-22T00:21:42.644Z,12.90
2022-10-22T00:22:44.781Z,12.57
2022-10-22T00:23:47.224Z,12.85
2022-10-22T00:24:49.397Z,12.80
2022-10-22T00:25:53.158Z,12.85
2022-10-22T00:26:55.567Z,13.25
2022-10-22T00:27:57.866Z,13.15
2022-10-22T00:29:00.081Z,12.35
2022-10-22T00:30:07.987Z,13.45
2022-10-22T00:31:10.185Z,14.02
2022-10-22T00:32:12.434Z,13.10
2022-10-22T00:33:14.692Z,13.52
2022-10-22T00:34:18.777Z,14.00
2022-10-22T00:35:21.117Z,12.57
2022-10-22T00:36:23.295Z,13.02
2022-10-22T00:37:25.631Z,14.00
2022-10-22T00:38:27.823Z,13.55
2022-10-22T00:39:29.975Z,13.05
2022-10-22T00:40:32.237Z,13.07
2022-10-22T00:41:34.527Z,12.70
2022-10-22T00:42:36.777Z,13.93
2022-10-22T00:44:00.442Z,12.93
2022-10-22T00:45:11.331Z,13.07
2022-10-22T00:46:13.615Z,13.77
2022-10-22T00:47:17.782Z,13.80
2022-10-22T00:48:25.388Z,13.68
2022-10-22T00:49:27.609Z,13.70
2022-10-22T00:50:41.921Z,13.65
2022-10-22T00:51:44.067Z,13.43
2022-10-22T00:52:46.965Z,13.45
2022-10-22T00:53:56.094Z,13.35
2022-10-22T00:54:58.445Z,13.48
2022-10-22T00:56:01.662Z,13.48
2022-10-22T00:57:04.031Z,14.02
2022-10-22T00:58:06.564Z,14.25
2022-10-22T00:59:09.861Z,13.63
2022-10-22T01:00:12.754Z,14.25
2022-10-22T01:01:21.535Z,14.15
2022-10-22T01:02:23.991Z,12.77
2022-10-22T01:03:26.410Z,14.35
2022-10-22T01:04:28.675Z,13.85
2022-10-22T01:05:38.431Z,14.65
2022-10-22T01:06:40.723Z,15.60
2022-10-22T01:07:51.760Z,13.98
2022-10-22T01:09:02.821Z,13.80
2022-10-22T01:11:35.502Z,13.93
2022-10-22T01:12:40.396Z,13.63
2022-10-22T01:13:51.898Z,13.95
2022-10-22T01:15:11.019Z,14.30
2022-10-22T01:16:22.007Z,14.45
2022-10-22T01:17:34.088Z,13.50
2022-10-22T01:19:04.231Z,14.57
2022-10-22T01:20:31.986Z,13.70
2022-10-22T01:21:46.619Z,14.50
2022-10-22T01:23:22.032Z,14.02
2022-10-22T01:24:41.643Z,14.05
2022-10-22T01:26:04.504Z,13.70
2022-10-22T01:27:48.998Z,13.63
2022-10-22T01:28:56.959Z,13.73
2022-10-22T01:30:05.097Z,15.75
2022-10-22T01:31:09.190Z,15.43
2022-10-22T01:32:16.404Z,15.07
2022-10-22T01:33:21.125Z,15.48
2022-10-22T01:34:25.389Z,14.68
2022-10-22T01:36:42.897Z,16.25
2022-10-22T01:37:56.221Z,15.15
2022-10-22T01:39:00.874Z,14.68
2022-10-22T01:40:05.212Z,16.13
2022-10-22T01:41:08.028Z,15.63
2022-10-22T01:42:12.814Z,15.15
2022-10-22T01:43:15.294Z,16.20
2022-10-22T01:45:51.724Z,15.85
2022-10-22T01:47:07.337Z,15.02
2022-10-22T01:48:21.299Z,15.50
2022-10-22T01:49:52.916Z,16.00
2022-10-22T01:51:35.354Z,14.90
2022-10-22T01:52:56.420Z,14.93
2022-10-22T01:55:27.547Z,14.82
2022-10-22T01:56:36.494Z,15.20
2022-10-22T01:58:06.170Z,14.65
2022-10-22T01:59:25.007Z,15.63
2022-10-22T02:00:31.717Z,14.93
2022-10-22T02:01:42.891Z,16.30
2022-10-22T02:02:51.395Z,15.23
2022-10-22T02:04:10.683Z,16.27
2022-10-22T02:05:25.184Z,14.27
2022-10-22T02:06:29.700Z,16.48
2022-10-22T02:07:39.771Z,15.52
2022-10-22T02:08:43.235Z,15.43
2022-10-22T02:09:46.682Z,15.13
2022-10-22T02:10:50.702Z,16.23
2022-10-22T02:11:54.617Z,15.73
2022-10-22T02:13:00.115Z,15.50
2022-10-22T02:14:05.072Z,15.35
2022-10-22T02:15:09.136Z,15.80
2022-10-22T02:16:16.241Z,15.95
2022-10-22T02:17:21.496Z,15.65
2022-10-22T02:18:29.887Z,16.48
2022-10-22T02:19:56.440Z,16.42
2022-10-22T02:21:00.263Z,14.68
2022-10-22T02:22:03.330Z,15.35
2022-10-22T02:23:06.007Z,15.45
2022-10-22T02:24:08.388Z,15.43
2022-10-22T02:25:12.039Z,15.55
2022-10-22T02:26:30.829Z,15.75
2022-10-22T02:27:49.259Z,14.50
2022-10-22T02:29:06.913Z,14.82
2022-10-22T02:31:29.824Z,16.33
2022-10-22T02:32:39.361Z,16.23
2022-10-22T02:33:51.035Z,14.88
2022-10-22T02:34:55.419Z,15.90
2022-10-22T02:35:59.220Z,15.75
2022-10-22T02:37:03.359Z,15.52
2022-10-22T02:38:06.297Z,15.27
2022-10-22T02:39:10.388Z,15.30
2022-10-22T02:40:13.492Z,15.65
2022-10-22T02:41:17.703Z,15.70
2022-10-22T02:42:20.034Z,15.88
2022-10-22T02:43:24.678Z,15.68
2022-10-22T02:44:26.975Z,15.30
2022-10-22T02:45:29.740Z,16.05
2022-10-22T02:46:31.900Z,16.27
2022-10-22T02:47:34.186Z,16.10
2022-10-22T02:48:36.965Z,15.45
2022-10-22T02:49:39.428Z,16.40
2022-10-22T02:50:41.767Z,15.80
2022-10-22T02:51:43.894Z,16.13
2022-10-22T02:52:46.259Z,15.65
2022-10-22T02:53:48.384Z,15.93
2022-10-22T02:54:50.741Z,17.70
2022-10-22T02:55:52.951Z,16.45
2022-10-22T02:56:55.155Z,16.50
2022-10-22T02:57:57.472Z,16.02
2022-10-22T02:58:59.630Z,16.50
2022-10-22T03:00:02.010Z,17.35
2022-10-22T03:01:04.269Z,17.13
2022-10-22T03:02:06.446Z,16.85
2022-10-22T03:03:08.757Z,16.10
2022-10-22T03:04:11.170Z,16.25
2022-10-22T03:05:13.722Z,16.50
2022-10-22T03:06:15.956Z,16.65
2022-10-22T03:07:18.167Z,17.08
2022-10-22T03:08:20.304Z,15.90
2022-10-22T03:09:24.742Z,16.50
2022-10-22T03:10:27.327Z,17.08
2022-10-22T03:11:29.676Z,17.77
2022-10-22T03:12:31.864Z,17.65
2022-10-22T03:13:34.001Z,17.70
2022-10-22T03:14:36.507Z,17.33
2022-10-22T03:15:38.910Z,17.60
2022-10-22T03:16:41.075Z,16.95
2022-10-22T03:17:43.375Z,17.30
2022-10-22T03:18:45.610Z,17.42
2022-10-22T03:19:47.959Z,16.90
2022-10-22T03:20:50.311Z,17.38
2022-10-22T03:22:00.089Z,17.25
2022-10-22T03:23:03.313Z,16.90
2022-10-22T03:24:27.493Z,17.10
2022-10-22T03:25:34.619Z,18.75
2022-10-22T03:26:38.279Z,17.92
2022-10-22T03:27:41.677Z,17.40
2022-10-22T03:28:44.244Z,16.30
2022-10-22T03:29:50.082Z,16.63
2022-10-22T03:30:52.583Z,16.80
2022-10-22T03:31:55.194Z,16.77
2022-10-22T03:32:57.630Z,17.80
2022-10-22T03:33:59.814Z,16.98
2022-10-22T03:35:02.121Z,17.30
2022-10-22T03:36:06.161Z,16.83
2022-10-22T03:37:08.534Z,17.30
2022-10-22T03:38:11.216Z,16.83
2022-10-22T03:39:16.130Z,16.63
2022-10-22T03:40:19.081Z,17.80
2022-10-22T03:41:21.336Z,16.83
2022-10-22T03:42:24.169Z,16.77
2022-10-22T03:43:26.772Z,16.75
2022-10-22T03:44:29.872Z,16.63
2022-10-22T03:45:32.368Z,16.45
2022-10-22T03:46:34.556Z,16.50
2022-10-22T03:47:37.509Z,15.93
2022-10-22T03:48:39.868Z,16.63
2022-10-22T03:49:42.201Z,16.38
2022-10-22T03:50:44.555Z,17.20
2022-10-22T03:51:46.763Z,16.92
2022-10-22T03:52:49.050Z,17.15
2022-10-22T03:53:51.266Z,16.60
2022-10-22T03:54:53.633Z,16.23
2022-10-22T03:55:55.920Z,15.27
2022-10-22T03:56:58.076Z,15.23
2022-10-22T03:58:00.368Z,16.10
2022-10-22T03:59:03.880Z,16.08
2022-10-22T04:00:07.080Z,15.48
2022-10-22T04:01:12.140Z,16.27
2022-10-22T04:02:14.588Z,16.00
2022-10-22T04:03:17.039Z,16.63
2022-10-22T04:04:19.271Z,16.30
2022-10-22T04:05:21.527Z,16.00
2022-10-22T04:06:24.496Z,16.35
2022-10-22T04:07:26.905Z,15.38
2022-10-22T04:08:29.181Z,15.88
2022-10-22T04:09:32.712Z,16.10
2022-10-22T04:10:34.912Z,15.90
2022-10-22T04:11:37.227Z,16.55
2022-10-22T04:12:39.429Z,15.90
2022-10-22T04:13:42.630Z,16.75
2022-10-22T04:14:44.951Z,16.70
2022-10-22T04:15:47.162Z,16.25
2022-10-22T04:16:49.488Z,15.98
2022-10-22T04:17:51.714Z,15.68
2022-10-22T04:18:53.877Z,14.65
2022-10-22T04:19:56.153Z,16.98
2022-10-22T04:20:58.304Z,14.93
2022-10-22T04:22:00.969Z,15.73
2022-10-22T04:23:03.127Z,15.32
2022-10-22T04:24:05.689Z,15.30
2022-10-22T04:25:08.262Z,15.35
2022-10-22T04:26:10.569Z,15.82
2022-10-22T04:27:12.724Z,15.40
2022-10-22T04:28:15.034Z,15.82
2022-10-22T04:29:17.205Z,16.98
2022-10-22T04:30:19.716Z,16.23
2022-10-22T04:31:24.236Z,15.23
2022-10-22T04:32:27.341Z,15.02
2022-10-22T04:33:29.676Z,15.80
2022-10-22T04:34:32.495Z,15.70
2022-10-22T04:35:38.913Z,15.45
2022-10-22T04:36:41.248Z,15.50
2022-10-22T04:37:43.518Z,15.50
2022-10-22T04:38:47.548Z,15.43
2022-10-22T04:39:49.736Z,16.48
2022-10-22T04:40:51.899Z,15.35
2022-10-22T04:41:54.450Z,15.77
2022-10-22T04:42:56.885Z,15.35
2022-10-22T04:44:00.064Z,16.50
2022-10-22T04:45:02.511Z,16.27
2022-10-22T04:46:05.731Z,15.75
2022-10-22T04:47:08.185Z,15.38
2022-10-22T04:48:10.381Z,16.20
2022-10-22T04:49:12.828Z,17.63
2022-10-22T04:50:15.264Z,17.42
2022-10-22T04:51:20.343Z,16.77
2022-10-22T04:52:22.800Z,16.30
2022-10-22T04:53:24.958Z,15.93
2022-10-22T04:54:30.500Z,16.27
2022-10-22T04:55:35.321Z,16.55
2022-10-22T04:56:37.474Z,16.98
2022-10-22T04:57:40.175Z,17.08
2022-10-22T04:58:43.700Z,16.38
2022-10-22T04:59:45.849Z,16.20
2022-10-22T05:00:48.224Z,16.65
2022-10-22T05:01:50.396Z,16.73
2022-10-22T05:02:52.932Z,17.58
2022-10-22T05:03:56.472Z,16.92
2022-10-22T05:04:58.631Z,16.77
2022-10-22T05:06:02.049Z,16.27
2022-10-22T05:07:04.423Z,16.83
2022-10-22T05:08:06.608Z,16.13
2022-10-22T05:09:13.341Z,16.38
2022-10-22T05:10:16.011Z,17.27
2022-10-22T05:11:20.719Z,16.38
2022-10-22T05:12:23.025Z,16.50
2022-10-22T05:13:25.311Z,16.23
2022-10-22T05:14:27.663Z,17.58
2022-10-22T05:15:29.956Z,17.00
2022-10-22T05:16:33.916Z,16.58
2022-10-22T05:17:37.688Z,16.10
2022-10-22T05:18:42.767Z,17.83
2022-10-22T05:19:44.941Z,16.70
2022-10-22T05:20:47.256Z,17.80
2022-10-22T05:21:51.380Z,17.17
2022-10-22T05:22:53.826Z,17.75
2022-10-22T05:23:57.295Z,17.42
2022-10-22T05:24:59.603Z,16.15
2022-10-22T05:26:03.866Z,16.85
2022-10-22T05:27:06.069Z,17.45
2022-10-22T05:28:08.474Z,17.25
2022-10-22T05:29:10.987Z,17.25
2022-10-22T05:30:13.470Z,16.00
2022-10-22T05:31:17.269Z,16.70
2022-10-22T05:32:19.583Z,17.40
2022-10-22T05:33:24.067Z,16.98
2022-10-22T05:34:26.468Z,17.70
2022-10-22T05:35:28.777Z,16.88
2022-10-22T05:36:30.924Z,16.75
2022-10-22T05:37:33.310Z,17.48
2022-10-22T05:38:35.867Z,17.67
2022-10-22T05:39:40.263Z,17.30
2022-10-22T05:40:42.647Z,17.73
2022-10-22T05:41:44.890Z,16.50
2022-10-22T05:42:47.248Z,17.27
2022-10-22T05:43:49.686Z,17.35
2022-10-22T05:44:51.830Z,16.17
2022-10-22T05:45:53.992Z,16.00
2022-10-22T05:46:56.371Z,16.50
2022-10-22T05:47:58.638Z,17.00
2022-10-22T05:49:03.499Z,15.90
2022-10-22T05:50:06.465Z,16.50
2022-10-22T05:51:13.193Z,16.33
2022-10-22T05:52:15.576Z,17.00
2022-10-22T05:53:18.523Z,16.80
2022-10-22T05:54:22.456Z,16.45
2022-10-22T05:55:24.665Z,16.98
2022-10-22T05:56:29.257Z,17.52
2022-10-22T05:57:31.444Z,15.88
2022-10-22T05:58:34.570Z,16.02
2022-10-22T05:59:36.758Z,17.13
2022-10-22T06:00:39.329Z,16.73
2022-10-22T06:01:41.591Z,17.35
2022-10-22T06:02:43.816Z,17.85
2022-10-22T06:03:47.209Z,16.10
2022-10-22T06:04:49.382Z,16.08
2022-10-22T06:05:52.304Z,16.98
2022-10-22T06:06:54.553Z,16.75
2022-10-22T06:07:57.822Z,17.35
2022-10-22T06:09:05.351Z,16.90
2022-10-22T06:10:14.868Z,16.83
2022-10-22T06:11:19.275Z,16.17
2022-10-22T06:12:21.468Z,17.00
2022-10-22T06:13:23.683Z,16.98
2022-10-22T06:14:27.011Z,17.75
2022-10-22T06:15:29.225Z,16.88
2022-10-22T06:16:31.904Z,17.60
2022-10-22T06:17:34.217Z,16.30
2022-10-22T06:18:36.408Z,16.33
2022-10-22T06:19:38.880Z,16.13
2022-10-22T06:20:43.182Z,17.35
2022-10-22T06:21:45.849Z,17.50
2022-10-22T06:22:48.339Z,17.73
2022-10-22T06:23:50.927Z,16.73
2022-10-22T06:24:53.235Z,17.55
2022-10-22T06:25:59.255Z,17.45
2022-10-22T06:27:01.527Z,17.45
2022-10-22T06:28:03.759Z,17.08
2022-10-22T06:29:08.733Z,17.92
2022-10-22T06:30:11.168Z,17.10
2022-10-22T06:31:14.445Z,18.45
2022-10-22T06:32:16.846Z,18.00
2022-10-22T06:33:19.138Z,17.83
2022-10-22T06:34:21.756Z,17.38
2022-10-22T06:35:23.998Z,17.83
2022-10-22T06:36:26.380Z,17.95
2022-10-22T06:37:28.561Z,17.92
2022-10-22T06:38:30.872Z,16.70
2022-10-22T06:39:33.317Z,18.45
2022-10-22T06:40:35.721Z,17.83
2022-10-22T06:41:38.042Z,18.55
2022-10-22T06:42:40.645Z,17.00
2022-10-22T06:43:47.655Z,18.17
2022-10-22T06:44:50.007Z,18.80
2022-10-22T06:45:52.193Z,17.52
2022-10-22T06:46:55.793Z,17.77
2022-10-22T06:47:57.958Z,17.77
2022-10-22T06:49:03.009Z,17.58
2022-10-22T06:50:05.787Z,18.00
2022-10-22T06:51:11.280Z,17.15
2022-10-22T06:52:13.628Z,17.30
2022-10-22T06:53:15.868Z,17.55
2022-10-22T06:54:21.084Z,18.33
2022-10-22T06:55:23.307Z,17.23
2022-10-22T06:56:27.804Z,18.13
2022-10-22T06:57:31.002Z,17.67
2022-10-22T06:58:33.394Z,17.65
2022-10-22T06:59:35.819Z,16.63
2022-10-22T07:00:37.995Z,18.27
2022-10-22T07:01:40.266Z,17.98
2022-10-22T07:02:42.877Z,16.45
2022-10-22T07:03:45.676Z,17.13
2022-10-22T07:04:47.828Z,17.30
2022-10-22T07:05:50.338Z,17.75
2022-10-22T07:06:56.051Z,17.40
2022-10-22T07:07:58.260Z,17.58
2022-10-22T07:09:00.643Z,17.42
2022-10-22T07:10:03.275Z,16.85
2022-10-22T07:11:07.720Z,16.52
2022-10-22T07:12:10.062Z,17.27
2022-10-22T07:13:12.285Z,16.50
2022-10-22T07:14:14.903Z,17.45
2022-10-22T07:15:17.500Z,16.52
2022-10-22T07:16:19.857Z,17.65
2022-10-22T07:17:22.010Z,17.55
2022-10-22T07:18:24.449Z,16.52
2022-10-22T07:19:26.835Z,16.20
2022-10-22T07:20:29.165Z,16.23
2022-10-22T07:21:31.832Z,17.85
2022-10-22T07:22:34.166Z,16.30
2022-10-22T07:23:37.136Z,16.90
2022-10-22T07:24:39.285Z,16.92
2022-10-22T07:25:41.921Z,17.35
2022-10-22T07:26:44.156Z,16.35
2022-10-22T07:27:46.317Z,17.92
2022-10-22T07:28:48.650Z,16.65
2022-10-22T07:29:50.897Z,16.85
2022-10-22T07:30:53.117Z,15.90
2022-10-22T07:31:55.318Z,16.48
2022-10-22T07:32:57.571Z,16.25
2022-10-22T07:33:59.780Z,16.80
2022-10-22T07:35:01.938Z,16.48
2022-10-22T07:36:07.220Z,16.45
2022-10-22T07:37:09.382Z,16.65
2022-10-22T07:38:11.548Z,16.55
2022-10-22T07:39:13.789Z,16.27
2022-10-22T07:40:16.151Z,16.88
2022-10-22T07:41:18.361Z,15.50
2022-10-22T07:42:20.608Z,15.55
2022-10-22T07:43:22.842Z,15.43
2022-10-22T07:44:25.077Z,16.92
2022-10-22T07:45:27.371Z,17.02
2022-10-22T07:46:29.549Z,15.93
2022-10-22T07:50:12.859Z,15.00
2022-10-22T07:51:16.686Z,14.82
2022-10-22T07:52:18.840Z,15.45
2022-10-22T07:53:24.122Z,15.65
2022-10-22T07:54:26.250Z,16.17
2022-10-22T07:55:28.370Z,16.58
2022-10-22T07:56:30.718Z,15.85
2022-10-22T07:57:33.034Z,15.68
2022-10-22T07:58:35.864Z,16.08
2022-10-22T07:59:38.013Z,16.17
2022-10-22T08:00:40.855Z,15.65
2022-10-22T08:01:43.041Z,16.50
2022-10-22T08:02:45.432Z,17.10
2022-10-22T08:03:48.855Z,16.08
2022-10-22T08:04:51.957Z,15.85
2022-10-22T08:05:54.606Z,15.57
2022-10-22T08:06:56.776Z,16.75
2022-10-22T08:07:59.255Z,17.02
2022-10-22T08:09:02.173Z,16.25
2022-10-22T08:10:04.726Z,16.10
2022-10-22T08:11:07.374Z,15.63
2022-10-22T08:12:09.601Z,16.65
2022-10-22T08:13:11.808Z,15.88
2022-10-22T08:14:14.191Z,15.90
2022-10-22T08:15:16.548Z,15.70
2022-10-22T08:16:19.085Z,15.88
2022-10-22T08:17:21.315Z,16.15
2022-10-22T08:18:23.499Z,16.60
2022-10-22T08:19:25.891Z,16.42
2022-10-22T08:20:28.262Z,16.77
2022-10-22T08:21:30.658Z,16.48
2022-10-22T08:22:32.849Z,16.95
2022-10-22T08:23:35.332Z,16.60
2022-10-22T08:24:37.686Z,15.88
2022-10-22T08:25:39.968Z,15.90
2022-10-22T08:26:42.597Z,16.08
2022-10-22T08:27:45.777Z,15.93
2022-10-22T08:28:48.078Z,15.82
2022-10-22T08:29:50.275Z,16.33
2022-10-22T08:30:52.547Z,14.95
2022-10-22T08:31:54.966Z,16.48
2022-10-22T08:32:57.585Z,16.15
2022-10-22T08:34:00.052Z,16.13
2022-10-22T08:35:02.361Z,16.75
2022-10-22T08:36:05.412Z,16.20
2022-10-22T08:37:08.861Z,15.93
2022-10-22T08:38:11.348Z,15.82
2022-10-22T08:39:14.000Z,16.20
2022-10-22T08:40:25.890Z,16.30
2022-10-22T08:41:28.395Z,14.40
2022-10-22T08:42:45.830Z,15.82
2022-10-22T08:44:24.896Z,16.10
2022-10-22T08:45:44.707Z,15.15
2022-10-22T08:47:22.450Z,15.73
2022-10-22T08:48:42.352Z,18.77
2022-10-22T08:49:44.825Z,19.70
2022-10-22T08:50:50.890Z,17.23
2022-10-22T08:51:53.660Z,16.20
2022-10-22T08:53:02.910Z,16.15
2022-10-22T08:54:19.630Z,15.80
2022-10-22T08:55:25.597Z,15.73
2022-10-22T08:56:28.943Z,15.40
2022-10-22T08:57:52.423Z,15.50
2022-10-22T08:59:13.950Z,14.95
2022-10-22T09:00:22.659Z,15.60
2022-10-22T09:01:46.755Z,15.88
2022-10-22T09:03:07.120Z,15.63
2022-10-22T09:04:41.405Z,14.80
2022-10-22T09:05:55.549Z,15.48
2022-10-22T09:06:59.364Z,15.70
2022-10-22T09:08:02.127Z,15.45
2022-10-22T09:09:13.054Z,15.75
2022-10-22T09:10:15.643Z,14.38
2022-10-22T09:11:37.767Z,15.82
2022-10-22T09:12:40.512Z,15.55
2022-10-22T09:13:45.547Z,18.48
2022-10-22T09:14:47.864Z,16.23
2022-10-22T09:15:59.096Z,16.20
2022-10-22T09:17:16.306Z,15.77
2022-10-22T09:18:50.910Z,15.00
2022-10-22T09:20:16.165Z,15.05
2022-10-22T09:22:00.976Z,14.65
2022-10-22T09:23:27.525Z,14.20
2022-10-22T09:24:55.579Z,13.38
2022-10-22T09:25:58.140Z,13.57
2022-10-22T09:27:01.707Z,13.07
2022-10-22T09:28:04.874Z,13.63
2022-10-22T09:29:14.158Z,14.45
2022-10-22T09:30:22.593Z,14.90
2022-10-22T09:31:28.136Z,13.50
2022-10-22T09:32:32.045Z,14.48
2022-10-22T09:33:34.296Z,14.48
2022-10-22T09:34:36.700Z,13.43
2022-10-22T09:35:53.426Z,14.82
2022-10-22T09:37:01.654Z,14.07
2022-10-22T09:38:08.574Z,13.82
2022-10-22T09:39:33.657Z,13.93
2022-10-22T09:40:44.113Z,13.88
2022-10-22T09:41:46.330Z,17.52
2022-10-22T09:42:49.619Z,14.63
2022-10-22T09:43:52.078Z,13.75
2022-10-22T09:44:59.564Z,15.10
2022-10-22T09:46:07.605Z,14.70
2022-10-22T09:47:42.806Z,14.27
2022-10-22T09:49:03.620Z,13.70
2022-10-22T09:50:37.054Z,13.45
2022-10-22T09:52:24.227Z,12.80
2022-10-22T09:53:29.973Z,12.82
2022-10-22T09:54:32.261Z,13.00
2022-10-22T09:55:34.716Z,13.73
2022-10-22T09:56:42.861Z,14.00
2022-10-22T09:57:53.432Z,13.20
2022-10-22T09:58:57.638Z,14.35
2022-10-22T09:59:59.981Z,15.68
2022-10-22T10:01:02.573Z,13.80
2022-10-22T10:02:26.642Z,12.27
2022-10-22T10:03:39.597Z,12.55
2022-10-22T10:04:50.375Z,11.95
2022-10-22T10:05:55.593Z,15.85
2022-10-22T10:06:58.527Z,12.77
2022-10-22T10:08:15.660Z,13.27
2022-10-22T10:09:21.288Z,12.25
2022-10-22T10:10:31.597Z,14.15
2022-10-22T10:11:43.549Z,12.77
2022-10-22T10:13:20.579Z,11.82
2022-10-22T10:14:48.286Z,12.13
2022-10-22T10:16:12.059Z,11.50
2022-10-22T10:17:23.202Z,11.38
2022-10-22T10:18:45.816Z,12.25
2022-10-22T10:20:04.075Z,12.43
2022-10-22T10:22:25.264Z,11.45
2022-10-22T10:24:09.247Z,11.52
2022-10-22T10:25:40.683Z,11.48
2022-10-22T10:28:25.505Z,10.80
2022-10-22T10:29:47.791Z,11.43
2022-10-22T10:31:21.127Z,12.05
2022-10-22T10:32:48.171Z,12.10
2022-10-22T10:33:53.004Z,11.27
2022-10-22T10:35:21.395Z,13.18
2022-10-22T10:36:41.607Z,10.18
2022-10-22T10:37:51.096Z,11.70
2022-10-22T10:39:34.703Z,10.52
2022-10-22T10:40:36.824Z,10.02
2022-10-22T10:42:01.600Z,10.00
2022-10-22T10:43:20.664Z,10.43
2022-10-22T10:45:07.417Z,10.18
2022-10-22T10:46:36.234Z,10.55
2022-10-22T10:47:51.589Z,9.88
2022-10-22T10:48:53.794Z,10.48
2022-10-22T10:50:16.757Z,10.02
2022-10-22T10:51:28.975Z,10.38
2022-10-22T10:52:49.807Z,10.38
2022-10-22T10:54:26.496Z,9.73
2022-10-22T10:55:36.339Z,9.10
2022-10-22T10:57:09.812Z,8.95
2022-10-22T10:58:21.659Z,9.15
2022-10-22T10:59:32.697Z,10.02
2022-10-22T11:00:45.637Z,11.05
2022-10-22T11:02:20.227Z,9.70
2022-10-22T11:03:39.944Z,10.32
2022-10-22T11:04:59.180Z,8.63
2022-10-22T11:06:09.824Z,9.35
2022-10-22T11:07:33.461Z,9.50
2022-10-22T11:08:39.623Z,9.63
2022-10-22T11:09:48.267Z,8.63
2022-10-22T11:10:59.490Z,9.93
2022-10-22T11:12:06.886Z,10.40
2022-10-22T11:13:19.608Z,9.35
2022-10-22T11:15:07.014Z,8.95
2022-10-22T11:16:27.217Z,9.13
2022-10-22T11:17:40.110Z,10.05
2022-10-22T11:18:58.348Z,9.15
2022-10-22T11:20:15.651Z,9.07
2022-10-22T11:21:22.756Z,9.45
2022-10-22T11:23:00.357Z,8.27
2022-10-22T11:24:05.439Z,8.48
2022-10-22T11:25:13.787Z,8.68
2022-10-22T11:26:46.191Z,8.55
2022-10-22T11:28:06.742Z,8.80
2022-10-22T11:29:22.258Z,8.05
2022-10-22T11:30:28.650Z,8.48
2022-10-22T11:31:32.570Z,9.20
2022-10-22T11:32:35.489Z,8.95
2022-10-22T11:34:28.516Z,9.85
2022-10-22T11:35:41.408Z,8.85
2022-10-22T11:36:45.747Z,9.02
2022-10-22T11:37:48.448Z,8.80
2022-10-22T11:38:51.355Z,9.20
2022-10-22T11:40:07.949Z,9.45
2022-10-22T11:41:13.733Z,9.25
2022-10-22T11:42:39.376Z,10.10
2022-10-22T11:43:58.736Z,9.15
2022-10-22T11:45:05.160Z,8.10
2022-10-22T11:46:16.227Z,9.18
2022-10-22T11:47:26.818Z,8.77
2022-10-22T11:48:36.307Z,9.35
2022-10-22T11:49:44.857Z,9.43
2022-10-22T11:51:02.138Z,9.70
2022-10-22T11:52:32.600Z,9.32
2022-10-22T11:53:38.896Z,8.93
2022-10-22T11:54:44.566Z,9.38
2022-10-22T11:55:49.959Z,8.82
2022-10-22T11:56:58.448Z,8.50
2022-10-22T11:58:02.848Z,9.68
2022-10-22T11:59:28.565Z,8.45
2022-10-22T12:00:39.577Z,8.68
2022-10-22T12:02:45.270Z,8.75
2022-10-22T12:04:20.508Z,8.70
2022-10-22T12:05:22.771Z,8.38
2022-10-22T12:06:29.329Z,8.15
2022-10-22T12:07:56.997Z,8.73
2022-10-22T12:09:04.753Z,8.43
2022-10-22T12:10:19.239Z,8.50
2022-10-22T12:11:37.452Z,8.50
2022-10-22T12:12:40.602Z,8.48
2022-10-22T12:14:03.573Z,8.75
2022-10-22T12:15:24.248Z,7.60
2022-10-22T12:16:37.778Z,8.55
2022-10-22T12:18:05.973Z,8.57
2022-10-22T12:19:11.214Z,9.05
2022-10-22T12:20:14.432Z,8.75
2022-10-22T12:21:17.104Z,9.43
2022-10-22T12:22:25.183Z,9.20
2022-10-22T12:23:34.198Z,9.57
2022-10-22T12:24:40.660Z,9.63
2022-10-22T12:25:43.004Z,9.63
2022-10-22T12:26:46.959Z,9.82
2022-10-22T12:27:55.130Z,9.98
2022-10-22T12:29:10.367Z,9.57
2022-10-22T12:30:27.736Z,10.75
2022-10-22T12:31:36.547Z,9.82
2022-10-22T12:32:42.529Z,9.88
2022-10-22T12:33:45.755Z,10.45
2022-10-22T12:34:52.468Z,10.43
2022-10-22T12:35:57.676Z,9.80
2022-10-22T12:37:00.150Z,9.25
2022-10-22T12:38:08.585Z,8.95
2022-10-22T12:39:16.748Z,9.73
2022-10-22T12:40:33.270Z,8.80
2022-10-22T12:41:38.558Z,10.20
2022-10-22T12:42:48.156Z,9.50
2022-10-22T12:43:59.142Z,9.60
2022-10-22T12:45:01.503Z,8.65
2022-10-22T12:46:03.757Z,9.57
2022-10-22T12:47:08.603Z,9.23
2022-10-22T12:48:35.095Z,8.75
2022-10-22T12:49:43.329Z,8.70
2022-10-22T12:50:50.735Z,8.75
2022-10-22T12:51:54.037Z,8.68
2022-10-22T12:52:56.313Z,9.13
2022-10-22T12:54:07.035Z,8.65
2022-10-22T12:55:10.739Z,8.70
2022-10-22T12:56:16.438Z,8.43
2022-10-22T12:57:20.365Z,9.52
2022-10-22T12:58:27.673Z,8.55
2022-10-22T12:59:36.843Z,9.38
2022-10-22T13:00:39.242Z,9.15
2022-10-22T13:01:43.579Z,8.25
2022-10-22T13:02:46.061Z,8.77
2022-10-22T13:03:50.938Z,8.73
2022-10-22T13:05:20.309Z,8.27
2022-10-22T13:06:26.294Z,7.72
2022-10-22T13:07:39.158Z,8.02
2022-10-22T13:08:41.410Z,8.38
2022-10-22T13:09:58.077Z,8.15
2022-10-22T13:11:09.291Z,7.70
2022-10-22T13:12:16.431Z,7.68
2022-10-22T13:13:32.953Z,7.38
2022-10-22T13:14:38.159Z,8.15
2022-10-22T13:15:40.588Z,7.35
2022-10-22T13:16:42.730Z,7.28
2022-10-22T13:17:45.234Z,7.20
2022-10-22T13:18:48.626Z,7.05
2022-10-22T13:19:53.583Z,6.28
2022-10-22T13:21:03.254Z,6.30
2022-10-22T13:22:05.890Z,5.60
2022-10-22T13:23:23.568Z,5.97
2022-10-22T13:24:25.745Z,6.15
2022-10-22T13:25:38.702Z,6.13
2022-10-22T13:26:40.907Z,6.00
2022-10-22T13:27:44.490Z,5.63
2022-10-22T13:28:57.419Z,6.57
2022-10-22T13:30:09.421Z,6.30
2022-10-22T13:31:18.180Z,6.72
2022-10-22T13:32:33.976Z,5.93
2022-10-22T13:33:39.401Z,5.47
2022-10-22T13:34:41.675Z,6.13
2022-10-22T13:35:43.851Z,6.50
2022-10-22T13:36:46.713Z,6.20
2022-10-22T13:37:49.187Z,6.68
2022-10-22T13:38:51.501Z,6.15
2022-10-22T13:39:53.802Z,6.50
2022-10-22T13:40:56.464Z,6.80
2022-10-22T13:41:59.037Z,7.07
2022-10-22T13:43:01.191Z,6.57
2022-10-22T13:44:03.386Z,6.97
2022-10-22T13:45:06.752Z,6.47
2022-10-22T13:46:09.706Z,6.57
2022-10-22T13:47:29.689Z,6.47
2022-10-22T13:48:31.971Z,6.72
2022-10-22T13:49:34.158Z,7.28
2022-10-22T13:50:36.523Z,6.50
2022-10-22T13:51:39.138Z,5.97
2022-10-22T13:52:49.631Z,6.40
2022-10-22T13:53:53.386Z,6.85
2022-10-22T13:54:55.962Z,7.47
2022-10-22T13:55:58.338Z,6.43
2022-10-22T13:57:01.069Z,6.40
2022-10-22T13:58:15.374Z,7.03
2022-10-22T13:59:21.183Z,6.60
2022-10-22T14:00:26.310Z,6.53
2022-10-22T14:01:28.881Z,6.57
2022-10-22T14:02:31.960Z,6.45
2022-10-22T14:03:37.405Z,6.20
2022-10-22T14:04:41.579Z,6.00
2022-10-22T14:05:46.696Z,6.30
2022-10-22T14:06:49.057Z,6.35
2022-10-22T14:07:52.700Z,5.80
2022-10-22T14:08:58.551Z,5.82
2022-10-22T14:10:01.059Z,5.70
2022-10-22T14:11:04.392Z,6.00
2022-10-22T14:12:17.070Z,5.95
2022-10-22T14:13:20.619Z,6.85
2022-10-22T14:14:22.972Z,6.32
2022-10-22T14:15:28.655Z,6.50
2022-10-22T14:16:33.213Z,5.70
2022-10-22T14:17:35.718Z,6.43
2022-10-22T14:18:37.910Z,6.57
2022-10-22T14:19:40.204Z,6.95
2022-10-22T14:20:43.081Z,6.45
2022-10-22T14:21:45.619Z,6.43
2022-10-22T14:22:49.682Z,6.45
2022-10-22T14:23:54.076Z,6.70
2022-10-22T14:24:56.508Z,6.90
2022-10-22T14:25:59.753Z,6.85
2022-10-22T14:27:02.083Z,6.97
2022-10-22T14:28:04.691Z,6.70
2022-10-22T14:29:11.018Z,6.20
2022-10-22T14:30:22.994Z,6.40
2022-10-22T14:31:25.520Z,6.25
2022-10-22T14:32:28.486Z,7.20
2022-10-22T14:33:33.782Z,6.95
2022-10-22T14:34:36.065Z,6.72
2022-10-22T14:35:38.206Z,6.18
2022-10-22T14:36:43.455Z,6.80
2022-10-22T14:37:45.987Z,7.10
2022-10-22T14:38:48.683Z,6.88
2022-10-22T14:40:01.167Z,6.50
2022-10-22T14:41:03.475Z,7.32
2022-10-22T14:42:05.842Z,7.68
2022-10-22T14:43:11.448Z,7.13